sensor_id;sensor_type;location;lat;lon;timestamp;temperature;humidity
29917;DHT22;16786;49.466;11.068;2023-02-11T00:01:06;-1.00;99.90
29917;DHT22;16786;49.466;11.068;2023-02-11T00:03:34;-1.10;99.90
29917;DHT22;16786;49.466;11.068;2023-02-11T00:06:04;-1.00;99.90
29917;DHT22;16786;49.466;11.068;2023-02-11T00:08:31;-0.90;99.90
29917;DHT22;16786;49.466;11.068;2023-02-11T00:10:59;-0.90;99.90
29917;DHT22;16786;49.466;11.068;2023-02-11T00:13:26;-0.80;99.90
29917;DHT22;16786;49.466;11.068;2023-02-11T00:15:54;-0.80;99.90
29917;DHT22;16786;49.466;11.068;2023-02-11T00:18:22;-0.70;99.90
29917;DHT22;16786;49.466;11.068;2023-02-11T00:20:49;-0.60;99.90
29917;DHT22;16786;49.466;11.068;2023-02-11T00:23:17;-0.60;99.90
29917;DHT22;16786;49.466;11.068;2023-02-11T00:25:45;-0.60;99.90
29917;DHT22;16786;49.466;11.068;2023-02-11T00:28:12;-0.60;99.90
29917;DHT22;16786;49.466;11.068;2023-02-11T00:30:40;-0.60;99.90
29917;DHT22;16786;49.466;11.068;2023-02-11T00:33:08;-0.50;99.90
29917;DHT22;16786;49.466;11.068;2023-02-11T00:35:36;-0.50;99.90
29917;DHT22;16786;49.466;11.068;2023-02-11T00:38:06;-0.50;99.90
29917;DHT22;16786;49.466;11.068;2023-02-11T00:40:34;-0.50;99.90
29917;DHT22;16786;49.466;11.068;2023-02-11T00:43:02;-0.60;99.90
29917;DHT22;16786;49.466;11.068;2023-02-11T00:45:30;-0.60;99.90
29917;DHT22;16786;49.466;11.068;2023-02-11T00:47:57;-0.60;99.90
29917;DHT22;16786;49.466;11.068;2023-02-11T00:50:27;-0.60;99.90
29917;DHT22;16786;49.466;11.068;2023-02-11T00:52:54;-0.60;99.90
29917;DHT22;16786;49.466;11.068;2023-02-11T00:55:22;-0.60;99.90
29917;DHT22;16786;49.466;11.068;2023-02-11T00:57:49;-0.60;99.90
29917;DHT22;16786;49.466;11.068;2023-02-11T01:00:17;-0.60;99.90
29917;DHT22;16786;49.466;11.068;2023-02-11T01:02:44;-0.70;99.90
29917;DHT22;16786;49.466;11.068;2023-02-11T01:05:11;-0.60;99.90
29917;DHT22;16786;49.466;11.068;2023-02-11T01:07:39;-0.60;99.90
29917;DHT22;16786;49.466;11.068;2023-02-11T01:10:06;-0.60;99.90
29917;DHT22;16786;49.466;11.068;2023-02-11T01:12:34;-0.60;99.90
29917;DHT22;16786;49.466;11.068;2023-02-11T01:15:03;-0.50;99.90
29917;DHT22;16786;49.466;11.068;2023-02-11T01:17:32;-0.50;99.90
29917;DHT22;16786;49.466;11.068;2023-02-11T01:20:03;-0.60;99.90
29917;DHT22;16786;49.466;11.068;2023-02-11T01:22:31;-0.60;99.90
29917;DHT22;16786;49.466;11.068;2023-02-11T01:25:00;-0.50;99.90
29917;DHT22;16786;49.466;11.068;2023-02-11T01:27:27;-0.60;99.90
29917;DHT22;16786;49.466;11.068;2023-02-11T01:29:56;-0.50;99.90
29917;DHT22;16786;49.466;11.068;2023-02-11T01:32:24;-0.50;99.90
29917;DHT22;16786;49.466;11.068;2023-02-11T01:34:53;-0.50;99.90
29917;DHT22;16786;49.466;11.068;2023-02-11T01:37:20;-0.50;99.90
29917;DHT22;16786;49.466;11.068;2023-02-11T01:39:47;-0.50;99.90
29917;DHT22;16786;49.466;11.068;2023-02-11T01:42:20;-0.50;99.90
29917;DHT22;16786;49.466;11.068;2023-02-11T01:44:50;-0.60;99.90
29917;DHT22;16786;49.466;11.068;2023-02-11T01:47:19;-0.60;99.90
29917;DHT22;16786;49.466;11.068;2023-02-11T01:49:54;-0.70;99.90
29917;DHT22;16786;49.466;11.068;2023-02-11T01:55:19;-0.70;99.90
29917;DHT22;16786;49.466;11.068;2023-02-11T01:58:14;-0.60;99.90
29917;DHT22;16786;49.466;11.068;2023-02-11T02:00:45;-0.60;99.90
29917;DHT22;16786;49.466;11.068;2023-02-11T02:03:18;-0.60;99.90
29917;DHT22;16786;49.466;11.068;2023-02-11T02:06:00;-0.60;99.90
29917;DHT22;16786;49.466;11.068;2023-02-11T02:11:09;-0.60;99.90
29917;DHT22;16786;49.466;11.068;2023-02-11T02:13:37;-0.60;99.90
29917;DHT22;16786;49.466;11.068;2023-02-11T02:16:09;-0.50;99.90
29917;DHT22;16786;49.466;11.068;2023-02-11T02:19:07;-0.50;99.90
29917;DHT22;16786;49.466;11.068;2023-02-11T02:24:50;-0.50;99.90
29917;DHT22;16786;49.466;11.068;2023-02-11T02:27:40;-0.50;99.90
29917;DHT22;16786;49.466;11.068;2023-02-11T02:33:38;-0.40;99.90
29917;DHT22;16786;49.466;11.068;2023-02-11T02:36:25;-0.40;99.90
29917;DHT22;16786;49.466;11.068;2023-02-11T02:39:04;-0.40;99.90
29917;DHT22;16786;49.466;11.068;2023-02-11T02:41:34;-0.40;99.90
29917;DHT22;16786;49.466;11.068;2023-02-11T02:44:03;-0.30;99.90
29917;DHT22;16786;49.466;11.068;2023-02-11T02:46:33;-0.30;99.90
29917;DHT22;16786;49.466;11.068;2023-02-11T02:49:02;-0.30;99.90
29917;DHT22;16786;49.466;11.068;2023-02-11T03:05:34;-0.20;99.90
29917;DHT22;16786;49.466;11.068;2023-02-11T03:10:50;-0.10;99.90
29917;DHT22;16786;49.466;11.068;2023-02-11T03:13:21;-0.10;99.90
29917;DHT22;16786;49.466;11.068;2023-02-11T03:15:58;0.00;99.90
29917;DHT22;16786;49.466;11.068;2023-02-11T03:18:35;0.10;99.90
29917;DHT22;16786;49.466;11.068;2023-02-11T03:21:07;0.10;99.90
29917;DHT22;16786;49.466;11.068;2023-02-11T03:23:50;0.20;99.90
29917;DHT22;16786;49.466;11.068;2023-02-11T03:26:41;0.30;99.90
29917;DHT22;16786;49.466;11.068;2023-02-11T03:29:24;0.30;99.90
29917;DHT22;16786;49.466;11.068;2023-02-11T03:34:41;0.40;99.90
29917;DHT22;16786;49.466;11.068;2023-02-11T03:40:09;0.50;99.90
29917;DHT22;16786;49.466;11.068;2023-02-11T03:42:45;0.60;99.90
29917;DHT22;16786;49.466;11.068;2023-02-11T03:45:17;0.60;99.90
29917;DHT22;16786;49.466;11.068;2023-02-11T03:47:49;0.60;99.90
29917;DHT22;16786;49.466;11.068;2023-02-11T03:50:19;0.70;99.90
29917;DHT22;16786;49.466;11.068;2023-02-11T03:52:48;0.70;99.90
29917;DHT22;16786;49.466;11.068;2023-02-11T03:55:18;0.70;99.90
29917;DHT22;16786;49.466;11.068;2023-02-11T03:57:47;0.70;99.90
29917;DHT22;16786;49.466;11.068;2023-02-11T04:00:14;0.70;99.90
29917;DHT22;16786;49.466;11.068;2023-02-11T04:02:42;0.70;99.90
29917;DHT22;16786;49.466;11.068;2023-02-11T04:05:13;0.70;99.90
29917;DHT22;16786;49.466;11.068;2023-02-11T04:07:41;0.70;99.90
29917;DHT22;16786;49.466;11.068;2023-02-11T04:10:10;0.70;99.90
29917;DHT22;16786;49.466;11.068;2023-02-11T04:12:38;0.70;99.90
29917;DHT22;16786;49.466;11.068;2023-02-11T04:15:05;0.70;99.90
29917;DHT22;16786;49.466;11.068;2023-02-11T04:17:33;0.70;99.90
29917;DHT22;16786;49.466;11.068;2023-02-11T04:20:00;0.70;99.90
29917;DHT22;16786;49.466;11.068;2023-02-11T04:22:28;0.60;99.90
29917;DHT22;16786;49.466;11.068;2023-02-11T04:24:56;0.50;99.90
29917;DHT22;16786;49.466;11.068;2023-02-11T04:27:24;0.60;99.90
29917;DHT22;16786;49.466;11.068;2023-02-11T04:29:51;0.50;99.90
29917;DHT22;16786;49.466;11.068;2023-02-11T04:32:18;0.50;99.90
29917;DHT22;16786;49.466;11.068;2023-02-11T04:34:46;0.70;99.90
29917;DHT22;16786;49.466;11.068;2023-02-11T04:37:14;0.70;99.90
29917;DHT22;16786;49.466;11.068;2023-02-11T04:39:41;0.70;99.90
29917;DHT22;16786;49.466;11.068;2023-02-11T04:42:08;0.70;99.90
29917;DHT22;16786;49.466;11.068;2023-02-11T04:44:36;0.70;99.90
29917;DHT22;16786;49.466;11.068;2023-02-11T04:47:03;0.60;99.90
29917;DHT22;16786;49.466;11.068;2023-02-11T04:49:30;0.60;99.90
29917;DHT22;16786;49.466;11.068;2023-02-11T04:51:58;0.70;99.90
29917;DHT22;16786;49.466;11.068;2023-02-11T04:54:25;0.80;99.90
29917;DHT22;16786;49.466;11.068;2023-02-11T04:56:52;0.80;99.90
29917;DHT22;16786;49.466;11.068;2023-02-11T04:59:20;0.80;99.90
29917;DHT22;16786;49.466;11.068;2023-02-11T05:01:47;0.90;99.90
29917;DHT22;16786;49.466;11.068;2023-02-11T05:04:16;0.90;99.90
29917;DHT22;16786;49.466;11.068;2023-02-11T05:06:43;0.90;99.90
29917;DHT22;16786;49.466;11.068;2023-02-11T05:09:12;0.80;99.90
29917;DHT22;16786;49.466;11.068;2023-02-11T05:11:39;0.80;99.90
29917;DHT22;16786;49.466;11.068;2023-02-11T05:14:07;0.90;99.90
29917;DHT22;16786;49.466;11.068;2023-02-11T05:16:34;0.90;99.90
29917;DHT22;16786;49.466;11.068;2023-02-11T05:19:01;0.90;99.90
29917;DHT22;16786;49.466;11.068;2023-02-11T05:21:29;0.80;99.90
29917;DHT22;16786;49.466;11.068;2023-02-11T05:23:56;0.80;99.90
29917;DHT22;16786;49.466;11.068;2023-02-11T05:26:24;0.80;99.90
29917;DHT22;16786;49.466;11.068;2023-02-11T05:28:51;0.80;99.90
29917;DHT22;16786;49.466;11.068;2023-02-11T05:31:19;0.80;99.90
29917;DHT22;16786;49.466;11.068;2023-02-11T05:33:46;0.80;99.90
29917;DHT22;16786;49.466;11.068;2023-02-11T05:36:13;0.80;99.90
29917;DHT22;16786;49.466;11.068;2023-02-11T05:38:42;0.80;99.90
29917;DHT22;16786;49.466;11.068;2023-02-11T05:41:10;0.80;99.90
29917;DHT22;16786;49.466;11.068;2023-02-11T05:43:37;0.80;99.90
29917;DHT22;16786;49.466;11.068;2023-02-11T05:46:05;0.80;99.90
29917;DHT22;16786;49.466;11.068;2023-02-11T05:48:33;0.90;99.90
29917;DHT22;16786;49.466;11.068;2023-02-11T05:51:00;1.00;99.90
29917;DHT22;16786;49.466;11.068;2023-02-11T05:53:27;1.10;99.90
29917;DHT22;16786;49.466;11.068;2023-02-11T05:55:55;1.10;99.90
29917;DHT22;16786;49.466;11.068;2023-02-11T05:58:22;1.10;99.90
29917;DHT22;16786;49.466;11.068;2023-02-11T06:00:49;1.10;99.90
29917;DHT22;16786;49.466;11.068;2023-02-11T06:03:17;1.20;99.90
29917;DHT22;16786;49.466;11.068;2023-02-11T06:05:44;1.20;99.90
29917;DHT22;16786;49.466;11.068;2023-02-11T06:08:12;1.20;99.90
29917;DHT22;16786;49.466;11.068;2023-02-11T06:10:39;1.20;99.90
29917;DHT22;16786;49.466;11.068;2023-02-11T06:13:09;1.20;99.90
29917;DHT22;16786;49.466;11.068;2023-02-11T06:15:36;1.20;99.90
29917;DHT22;16786;49.466;11.068;2023-02-11T06:18:03;1.30;99.90
29917;DHT22;16786;49.466;11.068;2023-02-11T06:20:31;1.20;99.90
29917;DHT22;16786;49.466;11.068;2023-02-11T06:22:59;1.20;99.90
29917;DHT22;16786;49.466;11.068;2023-02-11T06:25:26;1.10;99.90
29917;DHT22;16786;49.466;11.068;2023-02-11T06:27:53;1.00;99.90
29917;DHT22;16786;49.466;11.068;2023-02-11T06:30:21;1.00;99.90
29917;DHT22;16786;49.466;11.068;2023-02-11T06:32:48;1.00;99.90
29917;DHT22;16786;49.466;11.068;2023-02-11T06:35:17;1.00;99.90
29917;DHT22;16786;49.466;11.068;2023-02-11T06:37:44;0.90;99.90
29917;DHT22;16786;49.466;11.068;2023-02-11T06:40:12;0.90;99.90
29917;DHT22;16786;49.466;11.068;2023-02-11T06:42:40;0.80;99.90
29917;DHT22;16786;49.466;11.068;2023-02-11T06:45:08;0.80;99.90
29917;DHT22;16786;49.466;11.068;2023-02-11T06:47:37;0.80;99.90
29917;DHT22;16786;49.466;11.068;2023-02-11T06:50:06;0.80;99.90
29917;DHT22;16786;49.466;11.068;2023-02-11T06:52:34;0.90;99.90
29917;DHT22;16786;49.466;11.068;2023-02-11T06:55:01;0.90;99.90
29917;DHT22;16786;49.466;11.068;2023-02-11T06:57:30;0.90;99.90
29917;DHT22;16786;49.466;11.068;2023-02-11T06:59:57;0.90;99.90
29917;DHT22;16786;49.466;11.068;2023-02-11T07:02:24;1.00;99.90
29917;DHT22;16786;49.466;11.068;2023-02-11T07:04:52;1.00;99.90
29917;DHT22;16786;49.466;11.068;2023-02-11T07:07:19;1.00;99.90
29917;DHT22;16786;49.466;11.068;2023-02-11T07:09:46;1.00;99.90
29917;DHT22;16786;49.466;11.068;2023-02-11T07:12:13;1.00;99.90
29917;DHT22;16786;49.466;11.068;2023-02-11T07:14:41;1.10;99.90
29917;DHT22;16786;49.466;11.068;2023-02-11T07:17:08;1.10;99.90
29917;DHT22;16786;49.466;11.068;2023-02-11T07:19:35;1.10;99.90
29917;DHT22;16786;49.466;11.068;2023-02-11T07:22:03;1.20;99.90
29917;DHT22;16786;49.466;11.068;2023-02-11T07:24:30;1.20;99.90
29917;DHT22;16786;49.466;11.068;2023-02-11T07:26:57;1.30;99.90
29917;DHT22;16786;49.466;11.068;2023-02-11T07:29:24;1.40;99.90
29917;DHT22;16786;49.466;11.068;2023-02-11T07:31:52;1.50;99.90
29917;DHT22;16786;49.466;11.068;2023-02-11T07:34:19;1.60;99.90
29917;DHT22;16786;49.466;11.068;2023-02-11T07:36:46;1.80;99.90
29917;DHT22;16786;49.466;11.068;2023-02-11T07:39:15;2.00;99.90
29917;DHT22;16786;49.466;11.068;2023-02-11T07:41:42;2.20;99.90
29917;DHT22;16786;49.466;11.068;2023-02-11T07:44:10;2.30;99.90
29917;DHT22;16786;49.466;11.068;2023-02-11T07:46:37;2.40;99.90
29917;DHT22;16786;49.466;11.068;2023-02-11T07:49:09;2.50;99.90
29917;DHT22;16786;49.466;11.068;2023-02-11T07:51:37;2.50;99.90
29917;DHT22;16786;49.466;11.068;2023-02-11T07:54:04;2.70;99.90
29917;DHT22;16786;49.466;11.068;2023-02-11T07:56:32;2.70;99.90
29917;DHT22;16786;49.466;11.068;2023-02-11T07:59:01;2.90;99.90
29917;DHT22;16786;49.466;11.068;2023-02-11T08:01:29;2.90;99.90
29917;DHT22;16786;49.466;11.068;2023-02-11T08:03:58;3.10;99.90
29917;DHT22;16786;49.466;11.068;2023-02-11T08:06:29;3.20;99.90
29917;DHT22;16786;49.466;11.068;2023-02-11T08:09:02;3.30;99.90
29917;DHT22;16786;49.466;11.068;2023-02-11T08:11:29;3.20;99.90
29917;DHT22;16786;49.466;11.068;2023-02-11T08:13:57;3.30;99.90
29917;DHT22;16786;49.466;11.068;2023-02-11T08:18:55;3.40;99.90
29917;DHT22;16786;49.466;11.068;2023-02-11T08:21:23;3.50;99.90
29917;DHT22;16786;49.466;11.068;2023-02-11T08:23:51;3.60;99.90
29917;DHT22;16786;49.466;11.068;2023-02-11T08:26:21;3.70;99.90
29917;DHT22;16786;49.466;11.068;2023-02-11T08:28:50;3.70;99.90
29917;DHT22;16786;49.466;11.068;2023-02-11T08:31:21;3.70;99.90
29917;DHT22;16786;49.466;11.068;2023-02-11T08:33:48;3.70;99.90
29917;DHT22;16786;49.466;11.068;2023-02-11T08:36:19;3.70;99.90
29917;DHT22;16786;49.466;11.068;2023-02-11T08:38:46;3.80;99.90
29917;DHT22;16786;49.466;11.068;2023-02-11T08:41:14;3.90;99.90
29917;DHT22;16786;49.466;11.068;2023-02-11T08:43:43;4.00;99.90
29917;DHT22;16786;49.466;11.068;2023-02-11T08:46:13;4.00;99.90
29917;DHT22;16786;49.466;11.068;2023-02-11T08:48:41;4.00;99.90
29917;DHT22;16786;49.466;11.068;2023-02-11T08:51:12;4.00;99.90
29917;DHT22;16786;49.466;11.068;2023-02-11T08:53:39;3.90;99.90
29917;DHT22;16786;49.466;11.068;2023-02-11T08:56:09;4.00;99.90
29917;DHT22;16786;49.466;11.068;2023-02-11T08:58:39;4.10;99.90
29917;DHT22;16786;49.466;11.068;2023-02-11T09:01:20;4.00;99.90
29917;DHT22;16786;49.466;11.068;2023-02-11T09:03:49;4.00;99.90
29917;DHT22;16786;49.466;11.068;2023-02-11T09:06:16;4.20;99.90
29917;DHT22;16786;49.466;11.068;2023-02-11T09:08:46;4.20;99.90
29917;DHT22;16786;49.466;11.068;2023-02-11T09:11:17;4.40;99.90
29917;DHT22;16786;49.466;11.068;2023-02-11T09:13:45;4.50;99.90
29917;DHT22;16786;49.466;11.068;2023-02-11T09:16:27;4.60;99.90
29917;DHT22;16786;49.466;11.068;2023-02-11T09:18:56;4.70;99.90
29917;DHT22;16786;49.466;11.068;2023-02-11T09:21:24;4.70;99.90
29917;DHT22;16786;49.466;11.068;2023-02-11T09:23:52;4.70;99.90
29917;DHT22;16786;49.466;11.068;2023-02-11T09:26:24;4.70;99.90
29917;DHT22;16786;49.466;11.068;2023-02-11T09:28:52;4.90;99.90
29917;DHT22;16786;49.466;11.068;2023-02-11T09:31:21;4.80;99.90
29917;DHT22;16786;49.466;11.068;2023-02-11T09:33:52;4.90;99.90
29917;DHT22;16786;49.466;11.068;2023-02-11T09:36:22;5.00;99.90
29917;DHT22;16786;49.466;11.068;2023-02-11T09:38:51;5.20;99.90
29917;DHT22;16786;49.466;11.068;2023-02-11T09:43:55;4.90;99.90
29917;DHT22;16786;49.466;11.068;2023-02-11T09:46:23;5.00;99.90
29917;DHT22;16786;49.466;11.068;2023-02-11T09:48:53;5.20;99.90
29917;DHT22;16786;49.466;11.068;2023-02-11T09:54:12;5.80;99.90
29917;DHT22;16786;49.466;11.068;2023-02-11T09:56:42;6.20;99.90
29917;DHT22;16786;49.466;11.068;2023-02-11T09:59:14;6.40;99.90
29917;DHT22;16786;49.466;11.068;2023-02-11T10:02:04;6.40;99.90
29917;DHT22;16786;49.466;11.068;2023-02-11T10:05:18;6.40;99.90
29917;DHT22;16786;49.466;11.068;2023-02-11T10:08:00;6.50;99.90
29917;DHT22;16786;49.466;11.068;2023-02-11T10:11:07;6.90;99.90
29917;DHT22;16786;49.466;11.068;2023-02-11T10:22:57;7.20;99.90
29917;DHT22;16786;49.466;11.068;2023-02-11T10:25:45;7.40;99.90
29917;DHT22;16786;49.466;11.068;2023-02-11T10:28:18;7.50;99.90
29917;DHT22;16786;49.466;11.068;2023-02-11T10:30:58;7.60;99.90
29917;DHT22;16786;49.466;11.068;2023-02-11T10:33:40;7.40;99.90
29917;DHT22;16786;49.466;11.068;2023-02-11T10:36:13;7.30;99.90
29917;DHT22;16786;49.466;11.068;2023-02-11T10:38:42;7.50;99.90
29917;DHT22;16786;49.466;11.068;2023-02-11T10:41:16;7.60;99.90
29917;DHT22;16786;49.466;11.068;2023-02-11T10:43:44;7.90;99.90
29917;DHT22;16786;49.466;11.068;2023-02-11T10:46:23;7.80;99.90
29917;DHT22;16786;49.466;11.068;2023-02-11T10:48:53;7.80;99.90
29917;DHT22;16786;49.466;11.068;2023-02-11T10:51:24;7.50;99.90
29917;DHT22;16786;49.466;11.068;2023-02-11T10:56:44;7.50;99.90
29917;DHT22;16786;49.466;11.068;2023-02-11T11:02:04;7.60;99.90
29917;DHT22;16786;49.466;11.068;2023-02-11T11:04:40;7.40;99.90
29917;DHT22;16786;49.466;11.068;2023-02-11T11:12:35;7.60;99.90
29917;DHT22;16786;49.466;11.068;2023-02-11T11:17:37;7.20;99.90
29917;DHT22;16786;49.466;11.068;2023-02-11T11:20:26;7.20;99.90
29917;DHT22;16786;49.466;11.068;2023-02-11T11:23:21;7.20;99.90
29917;DHT22;16786;49.466;11.068;2023-02-11T11:26:00;7.10;99.90
29917;DHT22;16786;49.466;11.068;2023-02-11T11:28:32;7.10;99.90
29917;DHT22;16786;49.466;11.068;2023-02-11T11:31:02;7.20;99.90
29917;DHT22;16786;49.466;11.068;2023-02-11T11:33:33;7.20;99.90
29917;DHT22;16786;49.466;11.068;2023-02-11T11:36:10;7.20;99.90
29917;DHT22;16786;49.466;11.068;2023-02-11T11:38:49;7.20;99.90
29917;DHT22;16786;49.466;11.068;2023-02-11T11:44:18;7.20;99.90
29917;DHT22;16786;49.466;11.068;2023-02-11T11:46:52;7.10;99.90
29917;DHT22;16786;49.466;11.068;2023-02-11T11:49:30;7.00;99.90
29917;DHT22;16786;49.466;11.068;2023-02-11T11:55:20;7.10;99.90
29917;DHT22;16786;49.466;11.068;2023-02-11T11:57:48;7.20;99.90
29917;DHT22;16786;49.466;11.068;2023-02-11T12:00:19;7.00;99.90
29917;DHT22;16786;49.466;11.068;2023-02-11T12:11:02;7.20;99.90
29917;DHT22;16786;49.466;11.068;2023-02-11T12:22:17;7.60;99.90
29917;DHT22;16786;49.466;11.068;2023-02-11T12:30:20;7.30;99.90
29917;DHT22;16786;49.466;11.068;2023-02-11T12:38:54;7.20;99.90
29917;DHT22;16786;49.466;11.068;2023-02-11T12:44:57;6.80;99.90
29917;DHT22;16786;49.466;11.068;2023-02-11T12:56:05;7.30;99.90
29917;DHT22;16786;49.466;11.068;2023-02-11T12:58:37;7.40;99.90
29917;DHT22;16786;49.466;11.068;2023-02-11T13:07:01;7.80;99.90
29917;DHT22;16786;49.466;11.068;2023-02-11T13:09:56;7.80;99.90
29917;DHT22;16786;49.466;11.068;2023-02-11T13:12:26;7.70;99.90
29917;DHT22;16786;49.466;11.068;2023-02-11T13:15:14;7.60;99.90
29917;DHT22;16786;49.466;11.068;2023-02-11T13:23:30;7.40;99.90
29917;DHT22;16786;49.466;11.068;2023-02-11T13:26:18;7.40;99.90
29917;DHT22;16786;49.466;11.068;2023-02-11T13:29:05;7.30;99.90
29917;DHT22;16786;49.466;11.068;2023-02-11T13:31:35;7.20;99.90
29917;DHT22;16786;49.466;11.068;2023-02-11T13:34:02;7.00;99.90
29917;DHT22;16786;49.466;11.068;2023-02-11T13:36:53;7.00;99.90
29917;DHT22;16786;49.466;11.068;2023-02-11T13:39:21;7.10;99.90
29917;DHT22;16786;49.466;11.068;2023-02-11T13:41:49;7.10;99.90
29917;DHT22;16786;49.466;11.068;2023-02-11T13:44:24;7.10;99.90
29917;DHT22;16786;49.466;11.068;2023-02-11T13:47:01;7.10;99.90
29917;DHT22;16786;49.466;11.068;2023-02-11T13:49:36;7.10;99.90
29917;DHT22;16786;49.466;11.068;2023-02-11T13:52:22;7.10;99.90
29917;DHT22;16786;49.466;11.068;2023-02-11T13:54:51;7.10;99.90
29917;DHT22;16786;49.466;11.068;2023-02-11T13:59:53;7.10;99.90
29917;DHT22;16786;49.466;11.068;2023-02-11T14:11:01;6.60;99.90
29917;DHT22;16786;49.466;11.068;2023-02-11T14:13:34;6.60;99.90
29917;DHT22;16786;49.466;11.068;2023-02-11T14:16:11;6.60;99.90
29917;DHT22;16786;49.466;11.068;2023-02-11T14:41:09;6.60;99.90
29917;DHT22;16786;49.466;11.068;2023-02-11T14:43:44;6.60;99.90
29917;DHT22;16786;49.466;11.068;2023-02-11T14:46:17;6.60;99.90
29917;DHT22;16786;49.466;11.068;2023-02-11T14:48:48;6.60;99.90
29917;DHT22;16786;49.466;11.068;2023-02-11T14:51:20;6.50;99.90
29917;DHT22;16786;49.466;11.068;2023-02-11T14:53:52;6.50;99.90
29917;DHT22;16786;49.466;11.068;2023-02-11T14:56:25;6.50;99.90
29917;DHT22;16786;49.466;11.068;2023-02-11T14:58:54;6.40;99.90
29917;DHT22;16786;49.466;11.068;2023-02-11T15:01:25;6.50;99.90
29917;DHT22;16786;49.466;11.068;2023-02-11T15:03:57;6.40;99.90
29917;DHT22;16786;49.466;11.068;2023-02-11T15:06:37;6.40;99.90
29917;DHT22;16786;49.466;11.068;2023-02-11T15:09:15;6.40;99.90
29917;DHT22;16786;49.466;11.068;2023-02-11T15:11:45;6.40;99.90
29917;DHT22;16786;49.466;11.068;2023-02-11T15:14:29;6.40;99.90
29917;DHT22;16786;49.466;11.068;2023-02-11T15:17:07;6.30;99.90
29917;DHT22;16786;49.466;11.068;2023-02-11T15:19:38;6.20;99.90
29917;DHT22;16786;49.466;11.068;2023-02-11T15:22:16;6.20;99.90
29917;DHT22;16786;49.466;11.068;2023-02-11T15:25:00;6.20;99.90
29917;DHT22;16786;49.466;11.068;2023-02-11T15:27:40;6.10;99.90
29917;DHT22;16786;49.466;11.068;2023-02-11T15:32:48;5.90;99.90
29917;DHT22;16786;49.466;11.068;2023-02-11T15:35:44;5.90;99.90
29917;DHT22;16786;49.466;11.068;2023-02-11T15:38:12;5.90;99.90
29917;DHT22;16786;49.466;11.068;2023-02-11T15:40:57;5.90;99.90
29917;DHT22;16786;49.466;11.068;2023-02-11T15:43:44;5.90;99.90
29917;DHT22;16786;49.466;11.068;2023-02-11T15:46:16;5.90;99.90
29917;DHT22;16786;49.466;11.068;2023-02-11T15:48:48;5.80;99.90
29917;DHT22;16786;49.466;11.068;2023-02-11T15:53:54;5.80;99.90
29917;DHT22;16786;49.466;11.068;2023-02-11T15:56:27;5.80;99.90
29917;DHT22;16786;49.466;11.068;2023-02-11T15:59:17;5.80;99.90
29917;DHT22;16786;49.466;11.068;2023-02-11T16:01:46;5.70;99.90
29917;DHT22;16786;49.466;11.068;2023-02-11T16:04:16;5.70;99.90
29917;DHT22;16786;49.466;11.068;2023-02-11T16:06:44;5.80;99.90
29917;DHT22;16786;49.466;11.068;2023-02-11T16:14:37;5.70;99.90
29917;DHT22;16786;49.466;11.068;2023-02-11T16:17:09;5.70;99.90
29917;DHT22;16786;49.466;11.068;2023-02-11T16:19:44;5.70;99.90
29917;DHT22;16786;49.466;11.068;2023-02-11T16:22:18;5.70;99.90
29917;DHT22;16786;49.466;11.068;2023-02-11T16:24:47;5.70;99.90
29917;DHT22;16786;49.466;11.068;2023-02-11T16:27:25;5.70;99.90
29917;DHT22;16786;49.466;11.068;2023-02-11T16:29:56;5.70;99.90
29917;DHT22;16786;49.466;11.068;2023-02-11T16:32:26;5.60;99.90
29917;DHT22;16786;49.466;11.068;2023-02-11T16:34:56;5.60;99.90
29917;DHT22;16786;49.466;11.068;2023-02-11T16:37:27;5.60;99.90
29917;DHT22;16786;49.466;11.068;2023-02-11T16:39:55;5.60;99.90
29917;DHT22;16786;49.466;11.068;2023-02-11T16:42:23;5.60;99.90
29917;DHT22;16786;49.466;11.068;2023-02-11T16:44:50;5.60;99.90
29917;DHT22;16786;49.466;11.068;2023-02-11T16:47:27;5.60;99.90
29917;DHT22;16786;49.466;11.068;2023-02-11T16:49:55;5.50;99.90
29917;DHT22;16786;49.466;11.068;2023-02-11T16:52:23;5.50;99.90
29917;DHT22;16786;49.466;11.068;2023-02-11T16:54:52;5.50;99.90
29917;DHT22;16786;49.466;11.068;2023-02-11T16:57:22;5.50;99.90
29917;DHT22;16786;49.466;11.068;2023-02-11T16:59:50;5.50;99.90
29917;DHT22;16786;49.466;11.068;2023-02-11T17:02:25;5.50;99.90
29917;DHT22;16786;49.466;11.068;2023-02-11T17:04:54;5.40;99.90
29917;DHT22;16786;49.466;11.068;2023-02-11T17:07:22;5.40;99.90
29917;DHT22;16786;49.466;11.068;2023-02-11T17:09:49;5.40;99.90
29917;DHT22;16786;49.466;11.068;2023-02-11T17:12:19;5.40;99.90
29917;DHT22;16786;49.466;11.068;2023-02-11T17:14:47;5.40;99.90
29917;DHT22;16786;49.466;11.068;2023-02-11T17:17:14;5.50;99.90
29917;DHT22;16786;49.466;11.068;2023-02-11T17:19:42;5.50;99.90
29917;DHT22;16786;49.466;11.068;2023-02-11T17:22:10;5.50;99.90
29917;DHT22;16786;49.466;11.068;2023-02-11T17:24:37;5.50;99.90
29917;DHT22;16786;49.466;11.068;2023-02-11T17:27:05;5.60;99.90
29917;DHT22;16786;49.466;11.068;2023-02-11T17:29:32;5.60;99.90
29917;DHT22;16786;49.466;11.068;2023-02-11T17:31:59;5.60;99.90
29917;DHT22;16786;49.466;11.068;2023-02-11T17:34:27;5.60;99.90
29917;DHT22;16786;49.466;11.068;2023-02-11T17:36:55;5.50;99.90
29917;DHT22;16786;49.466;11.068;2023-02-11T17:39:24;5.50;99.90
29917;DHT22;16786;49.466;11.068;2023-02-11T17:41:51;5.50;99.90
29917;DHT22;16786;49.466;11.068;2023-02-11T17:44:19;5.50;99.90
29917;DHT22;16786;49.466;11.068;2023-02-11T17:46:46;5.40;99.90
29917;DHT22;16786;49.466;11.068;2023-02-11T17:49:14;5.50;99.90
29917;DHT22;16786;49.466;11.068;2023-02-11T17:51:42;5.40;99.90
29917;DHT22;16786;49.466;11.068;2023-02-11T17:54:17;5.40;99.90
29917;DHT22;16786;49.466;11.068;2023-02-11T17:56:45;5.40;99.90
29917;DHT22;16786;49.466;11.068;2023-02-11T17:59:16;5.40;99.90
29917;DHT22;16786;49.466;11.068;2023-02-11T18:01:43;5.30;99.90
29917;DHT22;16786;49.466;11.068;2023-02-11T18:04:13;5.30;99.90
29917;DHT22;16786;49.466;11.068;2023-02-11T18:06:41;5.30;99.90
29917;DHT22;16786;49.466;11.068;2023-02-11T18:09:09;5.30;99.90
29917;DHT22;16786;49.466;11.068;2023-02-11T18:11:37;5.20;99.90
29917;DHT22;16786;49.466;11.068;2023-02-11T18:14:05;5.30;99.90
29917;DHT22;16786;49.466;11.068;2023-02-11T18:16:34;5.30;99.90
29917;DHT22;16786;49.466;11.068;2023-02-11T18:19:05;5.30;99.90
29917;DHT22;16786;49.466;11.068;2023-02-11T18:21:33;5.30;99.90
29917;DHT22;16786;49.466;11.068;2023-02-11T18:24:01;5.30;99.90
29917;DHT22;16786;49.466;11.068;2023-02-11T18:26:33;5.20;99.90
29917;DHT22;16786;49.466;11.068;2023-02-11T18:29:01;5.30;99.90
29917;DHT22;16786;49.466;11.068;2023-02-11T18:31:30;5.30;99.90
29917;DHT22;16786;49.466;11.068;2023-02-11T18:33:57;5.20;99.90
29917;DHT22;16786;49.466;11.068;2023-02-11T18:36:24;5.20;99.90
29917;DHT22;16786;49.466;11.068;2023-02-11T18:38:52;5.20;99.90